createdAt,value
2018-12-01T00:00:54.138Z,23.40
2018-12-01T00:02:58.055Z,23.00
2018-12-01T00:05:01.871Z,22.27
2018-12-01T00:07:06.403Z,21.97
2018-12-01T00:09:10.189Z,19.35
2018-12-01T00:11:14.023Z,20.08
2018-12-01T00:13:17.833Z,24.95
2018-12-01T00:15:23.012Z,24.87
2018-12-01T00:17:26.861Z,22.48
2018-12-01T00:19:30.666Z,21.30
2018-12-01T00:21:34.501Z,20.80
2018-12-01T00:23:38.328Z,20.55
2018-12-01T00:25:41.861Z,24.20
2018-12-01T00:27:45.428Z,19.17
2018-12-01T00:29:49.238Z,25.55
2018-12-01T00:31:53.060Z,20.75
2018-12-01T00:33:56.934Z,24.00
2018-12-01T00:36:00.765Z,19.77
2018-12-01T00:38:04.308Z,22.63
2018-12-01T00:40:24.075Z,23.45
2018-12-01T00:42:27.918Z,21.57
2018-12-01T00:44:31.746Z,18.15
2018-12-01T00:46:35.247Z,19.90
2018-12-01T00:48:39.053Z,22.60
2018-12-01T00:50:42.881Z,16.87
2018-12-01T00:52:47.622Z,22.07
2018-12-01T00:54:51.198Z,25.53
2018-12-01T00:56:55.031Z,22.60
2018-12-01T00:58:58.858Z,20.80
2018-12-01T01:01:02.713Z,23.45
2018-12-01T01:03:06.568Z,20.25
2018-12-01T01:05:10.386Z,21.65
2018-12-01T01:07:13.965Z,23.83
2018-12-01T01:09:17.779Z,25.23
2018-12-01T01:11:21.586Z,22.62
2018-12-01T01:13:25.440Z,28.12
2018-12-01T01:15:29.266Z,22.70
2018-12-01T01:17:33.083Z,28.35
2018-12-01T01:19:36.628Z,26.57
2018-12-01T01:21:40.421Z,26.62
2018-12-01T01:23:44.249Z,25.32
2018-12-01T01:25:48.102Z,27.77
2018-12-01T01:27:51.630Z,18.67
2018-12-01T01:29:55.450Z,25.02
2018-12-01T01:31:58.934Z,22.70
2018-12-01T01:34:02.540Z,21.50
2018-12-01T01:36:06.414Z,27.73
2018-12-01T01:38:10.303Z,22.00
2018-12-01T01:40:14.981Z,25.37
2018-12-01T01:42:18.537Z,18.37
2018-12-01T01:44:22.115Z,27.53
2018-12-01T01:46:25.654Z,25.40
2018-12-01T01:48:29.201Z,19.40
2018-12-01T01:50:32.735Z,19.23
2018-12-01T01:52:36.317Z,24.30
2018-12-01T01:54:39.916Z,25.13
2018-12-01T01:56:43.798Z,21.12
2018-12-01T01:58:47.390Z,24.83
2018-12-01T02:00:51.183Z,26.55
2018-12-01T02:02:55.018Z,22.55
2018-12-01T02:04:58.578Z,21.13
2018-12-01T02:07:02.138Z,20.33
2018-12-01T02:09:08.347Z,25.03
2018-12-01T02:11:11.926Z,24.47
2018-12-01T02:13:15.444Z,20.63
2018-12-01T02:15:19.027Z,23.03
2018-12-01T02:17:22.561Z,25.27
2018-12-01T02:19:26.132Z,27.73
2018-12-01T02:21:30.088Z,26.43
2018-12-01T02:23:33.991Z,23.47
2018-12-01T02:25:37.886Z,28.40
2018-12-01T02:27:41.485Z,29.80
2018-12-01T02:29:45.337Z,25.23
2018-12-01T02:31:48.995Z,20.63
2018-12-01T02:33:52.874Z,23.18
2018-12-01T02:35:57.138Z,24.95
2018-12-01T02:38:01.002Z,25.05
2018-12-01T02:40:09.112Z,34.90
2018-12-01T02:42:12.968Z,26.90
2018-12-01T02:44:28.045Z,28.05
2018-12-01T02:47:35.227Z,18.87
2018-12-01T02:49:39.038Z,25.00
2018-12-01T02:51:42.887Z,23.52
2018-12-01T02:53:53.359Z,27.02
2018-12-01T02:55:56.904Z,26.30
2018-12-01T02:58:00.406Z,25.03
2018-12-01T03:00:07.434Z,22.03
2018-12-01T03:02:10.960Z,24.33
2018-12-01T03:04:15.532Z,22.30
2018-12-01T03:06:19.392Z,18.82
2018-12-01T03:08:23.278Z,23.55
2018-12-01T03:10:26.892Z,24.07
2018-12-01T03:12:30.702Z,25.88
2018-12-01T03:14:34.502Z,21.70
2018-12-01T03:16:38.325Z,23.15
2018-12-01T03:18:42.121Z,22.82
2018-12-01T03:20:46.347Z,23.00
2018-12-01T03:22:49.935Z,20.40
2018-12-01T03:24:53.731Z,26.50
2018-12-01T03:26:57.604Z,25.82
2018-12-01T03:29:01.151Z,27.00
2018-12-01T03:31:05.010Z,22.62
2018-12-01T03:33:15.533Z,25.27
2018-12-01T03:35:19.605Z,19.60
2018-12-01T03:37:23.433Z,24.90
2018-12-01T03:39:27.635Z,26.15
2018-12-01T03:41:31.458Z,22.77
2018-12-01T03:43:35.022Z,20.43
2018-12-01T03:45:38.870Z,25.97
2018-12-01T03:47:42.473Z,28.73
2018-12-01T03:49:46.416Z,22.87
2018-12-01T03:51:49.961Z,29.53
2018-12-01T03:53:53.795Z,22.75
2018-12-01T03:55:57.750Z,34.03
2018-12-01T03:58:01.916Z,23.57
2018-12-01T04:00:05.870Z,26.37
2018-12-01T04:02:09.705Z,27.62
2018-12-01T04:04:13.562Z,22.32
2018-12-01T04:06:17.562Z,27.42
2018-12-01T04:08:21.507Z,21.17
2018-12-01T04:10:25.342Z,22.75
2018-12-01T04:12:29.179Z,21.27
2018-12-01T04:14:33.004Z,17.02
2018-12-01T04:16:36.920Z,20.70
2018-12-01T04:18:40.910Z,23.87
2018-12-01T04:20:44.732Z,22.27
2018-12-01T04:22:48.591Z,21.95
2018-12-01T04:24:58.954Z,28.42
2018-12-01T04:27:03.105Z,19.20
2018-12-01T04:29:07.351Z,22.05
2018-12-01T04:31:11.176Z,17.77
2018-12-01T04:33:15.022Z,23.07
2018-12-01T04:35:19.749Z,18.37
2018-12-01T04:37:23.680Z,21.23
2018-12-01T04:39:27.906Z,21.17
2018-12-01T04:41:31.426Z,20.63
2018-12-01T04:43:35.273Z,17.92
2018-12-01T04:45:39.075Z,20.15
2018-12-01T04:47:42.949Z,22.70
2018-12-01T04:49:46.736Z,19.98
2018-12-01T04:51:50.210Z,20.43
2018-12-01T04:53:54.048Z,25.20
2018-12-01T04:55:57.868Z,19.60
2018-12-01T04:58:01.745Z,18.80
2018-12-01T05:00:13.597Z,25.17
2018-12-01T05:02:17.399Z,25.60
2018-12-01T05:04:21.253Z,25.20
2018-12-01T05:06:25.086Z,23.87
2018-12-01T05:08:28.942Z,23.15
2018-12-01T05:10:32.757Z,22.02
2018-12-01T05:12:36.758Z,25.02
2018-12-01T05:14:40.943Z,21.05
2018-12-01T05:16:44.764Z,22.02
2018-12-01T05:18:48.938Z,26.77
2018-12-01T05:20:52.750Z,17.25
2018-12-01T05:22:56.608Z,22.05
2018-12-01T05:25:00.442Z,25.00
2018-12-01T05:27:04.661Z,15.15
2018-12-01T05:29:08.522Z,16.45
2018-12-01T05:31:12.284Z,24.85
2018-12-01T05:33:16.125Z,18.17
2018-12-01T05:35:24.278Z,19.07
2018-12-01T05:37:28.064Z,21.60
2018-12-01T05:39:31.908Z,18.30
2018-12-01T05:41:35.713Z,24.27
2018-12-01T05:43:39.556Z,22.55
2018-12-01T05:45:43.364Z,23.20
2018-12-01T05:47:46.974Z,17.53
2018-12-01T05:49:50.823Z,22.90
2018-12-01T05:51:54.633Z,21.97
2018-12-01T05:53:58.498Z,21.35
2018-12-01T05:56:02.317Z,18.27
2018-12-01T05:58:06.243Z,17.73
2018-12-01T06:00:12.815Z,18.73
2018-12-01T06:02:16.618Z,21.35
2018-12-01T06:04:20.477Z,19.12
2018-12-01T06:06:24.301Z,22.13
2018-12-01T06:08:27.870Z,17.90
2018-12-01T06:10:31.693Z,27.40
2018-12-01T06:12:35.526Z,19.60
2018-12-01T06:14:39.365Z,20.48
2018-12-01T06:16:43.232Z,18.70
2018-12-01T06:18:47.087Z,17.90
2018-12-01T06:20:50.947Z,21.52
2018-12-01T06:22:54.476Z,22.57
2018-12-01T06:24:58.291Z,22.00
2018-12-01T06:27:02.094Z,23.18
2018-12-01T06:29:05.935Z,21.30
2018-12-01T06:31:09.769Z,18.82
2018-12-01T06:33:13.575Z,19.23
2018-12-01T06:35:17.379Z,16.85
2018-12-01T06:37:21.182Z,20.82
2018-12-01T06:39:25.014Z,20.75
2018-12-01T06:41:28.819Z,21.55
2018-12-01T06:43:32.601Z,13.80
2018-12-01T06:45:36.421Z,21.20
2018-12-01T06:47:40.269Z,15.05
2018-12-01T06:49:44.073Z,12.13
2018-12-01T06:51:47.846Z,20.45
2018-12-01T06:53:51.678Z,19.48
2018-12-01T06:55:55.518Z,14.90
2018-12-01T06:57:59.290Z,18.65
2018-12-01T07:00:03.486Z,21.62
2018-12-01T07:02:07.735Z,17.55
2018-12-01T07:04:11.541Z,17.07
2018-12-01T07:06:15.371Z,20.72
2018-12-01T07:08:19.214Z,17.60
2018-12-01T07:10:23.639Z,18.57
2018-12-01T07:12:27.418Z,24.27
2018-12-01T07:14:31.275Z,15.83
2018-12-01T07:16:35.140Z,21.27
2018-12-01T07:18:50.126Z,16.17
2018-12-01T07:20:53.966Z,20.57
2018-12-01T07:22:57.753Z,22.65
2018-12-01T07:25:01.588Z,17.77
2018-12-01T07:27:05.451Z,17.12
2018-12-01T07:29:09.354Z,22.80
2018-12-01T07:31:13.205Z,16.48
2018-12-01T07:33:17.050Z,18.57
2018-12-01T07:35:20.902Z,21.85
2018-12-01T07:37:24.712Z,28.47
2018-12-01T07:39:28.543Z,17.70
2018-12-01T07:41:32.398Z,21.75
2018-12-01T07:43:35.947Z,24.03
2018-12-01T07:45:39.800Z,22.35
2018-12-01T07:47:43.744Z,23.02
2018-12-01T07:49:47.574Z,27.50
2018-12-01T07:51:51.469Z,20.02
2018-12-01T07:53:57.365Z,21.77
2018-12-01T07:56:01.225Z,21.95
2018-12-01T07:58:04.829Z,26.63
2018-12-01T08:00:12.314Z,24.23
2018-12-01T08:02:15.928Z,26.50
2018-12-01T08:04:19.536Z,21.93
2018-12-01T08:06:23.058Z,18.97
2018-12-01T08:08:26.622Z,19.63
2018-12-01T08:10:30.205Z,23.90
2018-12-01T08:12:33.780Z,20.30
2018-12-01T08:14:37.339Z,23.27
2018-12-01T08:16:40.941Z,22.87
2018-12-01T08:18:44.494Z,20.60
2018-12-01T08:20:48.077Z,16.30
2018-12-01T08:22:51.659Z,25.70
2018-12-01T08:24:55.201Z,22.50
2018-12-01T08:26:58.793Z,19.63
2018-12-01T08:29:02.474Z,17.20
2018-12-01T08:31:06.079Z,17.90
2018-12-01T08:33:09.694Z,22.53
2018-12-01T08:35:13.291Z,22.43
2018-12-01T08:37:16.877Z,21.87
2018-12-01T08:39:20.397Z,19.07
2018-12-01T08:41:23.979Z,24.57
2018-12-01T08:43:27.527Z,18.70
2018-12-01T08:45:31.104Z,23.83
2018-12-01T08:47:34.673Z,21.57
2018-12-01T08:49:38.198Z,21.40
2018-12-01T08:51:41.713Z,17.07
2018-12-01T08:53:45.275Z,20.63
2018-12-01T08:55:48.799Z,19.43
2018-12-01T08:57:53.174Z,23.43
2018-12-01T08:59:56.768Z,20.17
2018-12-01T09:02:00.348Z,13.00
2018-12-01T09:04:03.955Z,15.50
2018-12-01T09:06:07.484Z,18.80
2018-12-01T09:08:11.076Z,14.40
2018-12-01T09:10:14.623Z,11.20
2018-12-01T09:12:18.190Z,15.03
2018-12-01T09:14:22.131Z,15.80
2018-12-01T09:16:32.303Z,11.50
2018-12-01T09:18:35.897Z,13.83
2018-12-01T09:20:39.426Z,14.33
2018-12-01T09:22:45.061Z,14.60
2018-12-01T09:24:48.679Z,13.50
2018-12-01T09:26:52.243Z,13.30
2018-12-01T09:28:55.802Z,14.10
2018-12-01T09:30:59.330Z,15.17
2018-12-01T09:33:02.949Z,17.37
2018-12-01T09:35:06.588Z,21.00
2018-12-01T09:37:10.121Z,15.67
2018-12-01T09:39:13.702Z,16.53
2018-12-01T09:41:17.298Z,20.67
2018-12-01T09:43:20.877Z,17.60
2018-12-01T09:45:25.535Z,21.40
2018-12-01T09:47:29.137Z,19.00
2018-12-01T09:49:32.706Z,21.77
2018-12-01T09:51:36.249Z,18.83
2018-12-01T09:53:40.106Z,12.88
2018-12-01T09:55:43.627Z,16.37
2018-12-01T09:57:47.645Z,15.63
2018-12-01T09:59:51.214Z,19.40
2018-12-01T10:01:55.156Z,16.00
2018-12-01T10:03:58.713Z,15.13
2018-12-01T10:06:02.257Z,19.37
2018-12-01T10:08:06.502Z,22.80
2018-12-01T10:10:11.386Z,19.07
2018-12-01T10:12:14.975Z,18.63
2018-12-01T10:14:18.552Z,20.23
2018-12-01T10:16:22.081Z,15.70
2018-12-01T10:18:25.905Z,13.03
2018-12-01T10:20:32.480Z,15.43
2018-12-01T10:22:36.009Z,14.83
2018-12-01T10:24:39.576Z,7.90
2018-12-01T10:26:43.084Z,12.73
2018-12-01T10:28:46.607Z,8.03
2018-12-01T10:30:50.199Z,13.87
2018-12-01T10:32:53.791Z,11.43
2018-12-01T10:34:57.754Z,11.67
2018-12-01T10:37:01.923Z,9.80
2018-12-01T10:39:09.040Z,5.73
2018-12-01T10:41:12.582Z,9.87
2018-12-01T10:43:16.152Z,11.60
2018-12-01T10:45:20.671Z,11.17
2018-12-01T10:47:24.184Z,13.07
2018-12-01T10:49:27.771Z,10.30
2018-12-01T10:51:31.333Z,10.33
2018-12-01T10:53:34.813Z,9.53
2018-12-01T10:55:38.388Z,10.20
2018-12-01T10:57:41.968Z,9.33
2018-12-01T10:59:45.514Z,12.50
2018-12-01T11:01:54.224Z,9.33
2018-12-01T11:03:57.757Z,8.63
2018-12-01T11:06:02.708Z,10.90
2018-12-01T11:08:08.102Z,10.10
2018-12-01T11:10:11.644Z,11.87
2018-12-01T11:12:15.267Z,8.43
2018-12-01T11:14:18.775Z,9.67
2018-12-01T11:16:22.434Z,10.10
2018-12-01T11:18:26.119Z,10.03
2018-12-01T11:20:29.683Z,12.63
2018-12-01T11:22:33.712Z,14.30
2018-12-01T11:24:37.691Z,7.73
2018-12-01T11:26:41.295Z,8.60
2018-12-01T11:28:45.229Z,10.63
2018-12-01T11:30:48.794Z,7.90
2018-12-01T11:32:52.734Z,8.53
2018-12-01T11:34:56.317Z,10.37
2018-12-01T11:36:59.931Z,7.27
2018-12-01T11:39:03.788Z,11.70
2018-12-01T11:41:07.353Z,10.50
2018-12-01T11:43:10.924Z,9.00
2018-12-01T11:45:17.188Z,9.30
2018-12-01T11:47:21.173Z,12.77
2018-12-01T11:49:24.742Z,8.63
2018-12-01T11:51:28.323Z,9.30
2018-12-01T11:53:31.836Z,5.23
2018-12-01T11:55:35.341Z,8.30
2018-12-01T11:57:39.261Z,9.13
2018-12-01T11:59:42.796Z,6.73
2018-12-01T12:01:46.331Z,6.53
2018-12-01T12:03:49.913Z,6.07
2018-12-01T12:05:53.866Z,6.10
2018-12-01T12:08:21.465Z,6.73
2018-12-01T12:10:25.092Z,6.43
2018-12-01T12:12:28.993Z,8.57
2018-12-01T12:14:32.539Z,6.57
2018-12-01T12:16:36.088Z,5.40
2018-12-01T12:18:39.638Z,7.40
2018-12-01T12:20:43.751Z,6.80
2018-12-01T12:22:47.348Z,4.67
2018-12-01T12:24:50.895Z,9.87
2018-12-01T12:26:54.413Z,6.37
2018-12-01T12:28:58.290Z,6.93
2018-12-01T12:31:02.219Z,5.17
2018-12-01T12:33:06.005Z,6.27
2018-12-01T12:35:10.675Z,6.40
2018-12-01T12:37:14.234Z,5.90
2018-12-01T12:39:17.769Z,10.63
2018-12-01T12:41:21.293Z,5.50
2018-12-01T12:43:24.782Z,6.60
2018-12-01T12:45:28.301Z,5.33
2018-12-01T12:47:31.864Z,8.57
2018-12-01T12:49:35.381Z,5.07
2018-12-01T12:51:38.893Z,4.73
2018-12-01T12:53:42.432Z,4.87
2018-12-01T12:55:45.956Z,6.57
2018-12-01T12:57:49.538Z,4.83
2018-12-01T12:59:53.064Z,7.13
2018-12-01T13:01:56.583Z,6.07
2018-12-01T13:04:00.145Z,6.87
2018-12-01T13:06:03.725Z,5.70
2018-12-01T13:08:08.072Z,4.67
2018-12-01T13:10:12.973Z,7.57
2018-12-01T13:12:16.541Z,6.93
2018-12-01T13:14:20.069Z,4.57
2018-12-01T13:16:23.615Z,4.33
2018-12-01T13:18:27.109Z,5.53
2018-12-01T13:20:30.690Z,8.43
2018-12-01T13:22:34.241Z,7.07
2018-12-01T13:24:37.800Z,5.60
2018-12-01T13:26:41.352Z,8.13
2018-12-01T13:28:44.910Z,5.00
2018-12-01T13:30:56.528Z,7.57
2018-12-01T13:33:00.110Z,7.83
2018-12-01T13:35:03.714Z,5.50
2018-12-01T13:37:07.524Z,5.23
2018-12-01T13:39:11.106Z,6.53
2018-12-01T13:41:14.676Z,6.10
2018-12-01T13:43:18.933Z,5.63
2018-12-01T13:45:22.863Z,7.70
2018-12-01T13:47:26.777Z,7.93
2018-12-01T13:49:30.648Z,7.57
2018-12-01T13:51:34.238Z,8.20
2018-12-01T13:53:37.771Z,4.63
2018-12-01T13:55:41.315Z,8.00
2018-12-01T13:57:44.873Z,6.37
2018-12-01T13:59:48.403Z,4.97
2018-12-01T14:01:51.969Z,5.77
2018-12-01T14:03:55.506Z,6.23
2018-12-01T14:05:59.101Z,6.60
2018-12-01T14:08:02.776Z,4.47
2018-12-01T14:10:17.352Z,9.00
2018-12-01T14:12:20.882Z,7.83
2018-12-01T14:14:24.401Z,9.83
2018-12-01T14:16:27.958Z,7.17
2018-12-01T14:18:31.552Z,5.87
2018-12-01T14:20:35.567Z,9.50
2018-12-01T14:22:39.111Z,6.93
2018-12-01T14:24:42.682Z,8.53
2018-12-01T14:26:46.215Z,10.47
2018-12-01T14:28:49.799Z,6.17
2018-12-01T14:30:53.347Z,7.50
2018-12-01T14:32:56.920Z,8.10
2018-12-01T14:35:00.459Z,7.50
2018-12-01T14:37:04.075Z,6.57
2018-12-01T14:39:08.488Z,6.57
2018-12-01T14:41:12.025Z,4.17
2018-12-01T14:43:15.571Z,6.23
2018-12-01T14:45:19.193Z,7.23
2018-12-01T14:47:22.784Z,5.83
2018-12-01T14:49:26.334Z,9.97
2018-12-01T14:51:29.865Z,5.40
2018-12-01T14:53:33.430Z,6.37
2018-12-01T14:55:36.965Z,6.73
2018-12-01T14:57:40.856Z,7.30
2018-12-01T14:59:44.359Z,7.27
2018-12-01T15:01:47.885Z,6.10
2018-12-01T15:03:51.437Z,5.30
2018-12-01T15:05:54.992Z,7.17
2018-12-01T15:07:58.631Z,6.87
2018-12-01T15:10:02.234Z,5.40
2018-12-01T15:12:06.439Z,7.37
2018-12-01T15:14:09.965Z,6.33
2018-12-01T15:16:13.543Z,7.10
2018-12-01T15:18:17.142Z,6.77
2018-12-01T15:20:22.064Z,5.30
2018-12-01T15:22:25.642Z,9.20
2018-12-01T15:24:29.218Z,5.70
2018-12-01T15:26:33.128Z,6.10
2018-12-01T15:28:36.815Z,10.37
2018-12-01T15:30:40.473Z,5.53
2018-12-01T15:32:45.503Z,7.67
2018-12-01T15:34:49.101Z,8.07
2018-12-01T15:36:52.657Z,4.87
2018-12-01T15:38:56.322Z,6.03
2018-12-01T15:40:59.885Z,8.63
2018-12-01T15:43:03.514Z,7.37
2018-12-01T15:45:08.765Z,9.63
2018-12-01T15:47:12.370Z,7.83
2018-12-01T15:49:16.285Z,6.20
2018-12-01T15:51:19.897Z,12.93
2018-12-01T15:53:23.521Z,6.30
2018-12-01T15:55:27.082Z,9.63
2018-12-01T15:57:30.634Z,7.07
2018-12-01T15:59:34.221Z,6.43
2018-12-01T16:01:37.805Z,8.17
2018-12-01T16:03:41.400Z,9.97
2018-12-01T16:05:44.950Z,10.27
2018-12-01T16:07:49.597Z,12.20
2018-12-01T16:09:53.261Z,9.13
2018-12-01T16:11:57.130Z,8.48
2018-12-01T16:14:00.696Z,5.77
2018-12-01T16:16:07.453Z,8.33
2018-12-01T16:18:11.473Z,9.13
2018-12-01T16:20:15.646Z,7.97
2018-12-01T16:22:19.183Z,6.23
2018-12-01T16:24:22.776Z,6.57
2018-12-01T16:26:26.603Z,6.25
2018-12-01T16:28:30.451Z,6.87
2018-12-01T16:30:36.253Z,7.37
2018-12-01T16:32:40.124Z,8.95
2018-12-01T16:34:43.698Z,10.53
2018-12-01T16:36:47.589Z,10.37
2018-12-01T16:38:51.301Z,6.80
2018-12-01T16:41:29.620Z,8.87
2018-12-01T16:43:35.074Z,7.78
2018-12-01T16:45:39.047Z,8.63
2018-12-01T16:47:43.227Z,5.40
2018-12-01T16:49:47.105Z,7.58
2018-12-01T16:51:57.429Z,4.92
2018-12-01T16:54:01.237Z,10.10
2018-12-01T16:56:05.177Z,6.25
2018-12-01T16:58:09.346Z,8.95
2018-12-01T17:00:14.485Z,8.40
2018-12-01T17:02:18.322Z,8.40
2018-12-01T17:04:22.123Z,7.45
2018-12-01T17:06:25.895Z,7.03
2018-12-01T17:08:29.753Z,6.78
2018-12-01T17:10:33.624Z,7.58
2018-12-01T17:12:37.787Z,9.05
2018-12-01T17:14:42.008Z,6.83
2018-12-01T17:16:45.835Z,6.85
2018-12-01T17:18:49.688Z,8.75
2018-12-01T17:20:53.488Z,6.08
2018-12-01T17:22:58.419Z,10.50
2018-12-01T17:25:02.264Z,9.38
2018-12-01T17:27:06.679Z,7.37
2018-12-01T17:29:10.508Z,6.03
2018-12-01T17:31:14.360Z,6.90
2018-12-01T17:33:18.247Z,12.07
2018-12-01T17:35:24.183Z,7.60
2018-12-01T17:37:28.052Z,7.60
2018-12-01T17:39:31.970Z,6.92
2018-12-01T17:41:35.826Z,8.30
2018-12-01T17:44:12.428Z,7.75
2018-12-01T17:46:16.231Z,6.03
2018-12-01T17:48:20.121Z,7.97
2018-12-01T17:50:24.007Z,9.05
2018-12-01T17:52:28.876Z,4.70
2018-12-01T17:54:32.789Z,8.78
2018-12-01T17:56:37.628Z,8.55
2018-12-01T17:58:41.511Z,5.90
2018-12-01T18:00:45.332Z,5.03
2018-12-01T18:02:50.306Z,7.80
2018-12-01T18:04:54.474Z,7.47
2018-12-01T18:06:58.337Z,5.15
2018-12-01T18:09:02.178Z,5.28
2018-12-01T18:11:06.838Z,8.98
2018-12-01T18:13:10.707Z,5.58
2018-12-01T18:15:17.581Z,4.42
2018-12-01T18:17:21.474Z,7.08
2018-12-01T18:19:25.316Z,6.15
2018-12-01T18:21:29.144Z,4.75
2018-12-01T18:23:32.986Z,6.55
2018-12-01T18:25:40.513Z,4.65
2018-12-01T18:27:44.513Z,7.45
2018-12-01T18:29:48.313Z,6.90
2018-12-01T18:31:52.130Z,8.43
2018-12-01T18:34:01.254Z,6.45
2018-12-01T18:36:05.903Z,9.28
2018-12-01T18:38:10.425Z,6.92
2018-12-01T18:40:17.740Z,6.20
2018-12-01T18:42:21.574Z,7.95
2018-12-01T18:44:25.101Z,4.40
2018-12-01T18:46:28.947Z,10.00
2018-12-01T18:48:32.781Z,5.45
2018-12-01T18:50:36.816Z,5.00
2018-12-01T18:52:40.733Z,6.67
2018-12-01T18:54:44.583Z,5.50
2018-12-01T18:56:48.441Z,4.67
2018-12-01T18:58:52.031Z,5.73
2018-12-01T19:00:57.418Z,6.08
2018-12-01T19:03:01.625Z,4.67
2018-12-01T19:05:05.547Z,6.28
2018-12-01T19:07:09.086Z,7.37
2018-12-01T19:09:12.975Z,4.83
2018-12-01T19:11:16.542Z,5.83
2018-12-01T19:13:20.791Z,5.08
2018-12-01T19:15:24.231Z,4.85
2018-12-01T19:17:27.787Z,6.27
2018-12-01T19:19:31.327Z,3.50
2018-12-01T19:21:34.891Z,3.87
2018-12-01T19:23:38.482Z,6.50
2018-12-01T19:25:44.157Z,3.62
2018-12-01T19:27:47.985Z,4.13
2018-12-01T19:29:51.824Z,5.83
2018-12-01T19:31:55.374Z,5.30
2018-12-01T19:33:59.173Z,8.33
2018-12-01T19:36:02.695Z,5.67
2018-12-01T19:38:07.762Z,7.47
2018-12-01T19:40:19.915Z,5.20
2018-12-01T19:42:23.727Z,10.18
2018-12-01T19:44:27.260Z,6.10
2018-12-01T19:46:31.055Z,6.90
2018-12-01T19:48:34.604Z,5.97
2018-12-01T19:50:39.795Z,7.40
2018-12-01T19:52:43.577Z,5.08
2018-12-01T19:54:47.409Z,4.20
2018-12-01T19:56:50.991Z,6.47
2018-12-01T19:58:54.540Z,4.67
2018-12-01T20:00:58.880Z,8.20
2018-12-01T20:03:03.926Z,8.93
2018-12-01T20:05:09.786Z,4.00
2018-12-01T20:07:13.327Z,5.20
2018-12-01T20:09:16.985Z,8.10
2018-12-01T20:11:20.805Z,6.62
2018-12-01T20:13:28.701Z,5.47
2018-12-01T20:15:41.574Z,4.53
2018-12-01T20:17:45.123Z,5.40
2018-12-01T20:19:48.944Z,7.47
2018-12-01T20:21:52.472Z,3.40
2018-12-01T20:23:56.359Z,10.28
2018-12-01T20:25:59.858Z,4.93
2018-12-01T20:28:03.714Z,4.92
2018-12-01T20:30:16.207Z,4.70
2018-12-01T20:32:19.765Z,7.53
2018-12-01T20:34:23.350Z,6.80
2018-12-01T20:36:31.171Z,6.25
2018-12-01T20:38:39.919Z,6.37
2018-12-01T20:40:43.754Z,5.28
2018-12-01T20:42:47.537Z,6.15
2018-12-01T20:44:51.403Z,4.58
2018-12-01T20:46:55.317Z,6.45
2018-12-01T20:48:59.134Z,6.62
2018-12-01T20:51:03.302Z,7.58
2018-12-01T20:53:07.719Z,6.90
2018-12-01T20:55:17.205Z,5.92
2018-12-01T20:57:26.813Z,7.33
2018-12-01T20:59:30.596Z,5.12
2018-12-01T21:01:34.432Z,9.40
2018-12-01T21:03:38.259Z,8.23
2018-12-01T21:05:42.464Z,6.30
2018-12-01T21:07:46.302Z,5.75
2018-12-01T21:09:50.126Z,5.42
2018-12-01T21:11:53.969Z,4.22
2018-12-01T21:13:57.805Z,5.97
2018-12-01T21:16:01.641Z,7.60
2018-12-01T21:18:05.590Z,5.72
2018-12-01T21:20:13.478Z,7.47
2018-12-01T21:22:17.328Z,6.12
2018-12-01T21:24:21.179Z,8.98
2018-12-01T21:26:24.979Z,9.20
2018-12-01T21:28:28.812Z,9.58
2018-12-01T21:30:33.061Z,7.10
2018-12-01T21:32:36.911Z,10.55
2018-12-01T21:34:40.737Z,7.50
2018-12-01T21:36:44.922Z,9.48
2018-12-01T21:38:48.829Z,9.93
2018-12-01T21:40:52.726Z,5.12
2018-12-01T21:42:56.576Z,7.50
2018-12-01T21:45:00.428Z,5.75
2018-12-01T21:47:04.671Z,7.67
2018-12-01T21:49:08.520Z,5.80
2018-12-01T21:51:12.312Z,7.95
2018-12-01T21:53:30.995Z,7.17
2018-12-01T21:55:34.871Z,4.80
2018-12-01T21:57:39.043Z,8.48
2018-12-01T21:59:42.873Z,5.37
2018-12-01T22:01:46.685Z,6.10
2018-12-01T22:03:51.349Z,7.58
2018-12-01T22:05:56.182Z,10.00
2018-12-01T22:08:00.122Z,7.65
2018-12-01T22:10:04.459Z,5.90
2018-12-01T22:12:08.285Z,7.17
2018-12-01T22:14:12.147Z,10.63
2018-12-01T22:16:15.937Z,5.17
2018-12-01T22:18:20.114Z,6.87
2018-12-01T22:20:24.221Z,9.28
2018-12-01T22:22:28.057Z,4.67
2018-12-01T22:24:31.929Z,4.55
2018-12-01T22:26:35.785Z,5.00
2018-12-01T22:28:39.710Z,7.67
2018-12-01T22:30:46.486Z,5.35
2018-12-01T22:32:53.572Z,6.67
2018-12-01T22:34:57.418Z,6.67
2018-12-01T22:37:01.272Z,5.65
2018-12-01T22:39:09.614Z,7.15
2018-12-01T22:41:13.442Z,6.70
2018-12-01T22:43:17.283Z,6.22
2018-12-01T22:45:21.142Z,4.83
2018-12-01T22:47:24.957Z,4.92
2018-12-01T22:49:28.827Z,7.17
2018-12-01T22:51:32.673Z,4.22
2018-12-01T22:53:36.503Z,4.85
2018-12-01T22:55:41.535Z,4.53
2018-12-01T22:57:47.026Z,4.37
2018-12-01T22:59:50.835Z,6.28
2018-12-01T23:01:54.717Z,3.55
2018-12-01T23:03:58.581Z,5.75
2018-12-01T23:06:02.415Z,7.65
2018-12-01T23:08:08.409Z,3.77
2018-12-01T23:10:14.260Z,4.37
2018-12-01T23:12:18.075Z,5.30
2018-12-01T23:14:21.926Z,4.83
2018-12-01T23:16:26.116Z,4.42
2018-12-01T23:18:29.919Z,4.05
2018-12-01T23:20:33.775Z,4.30
2018-12-01T23:22:37.601Z,6.30
2018-12-01T23:24:41.403Z,5.25
2018-12-01T23:26:45.191Z,4.75
2018-12-01T23:28:49.054Z,4.17
2018-12-01T23:30:55.891Z,5.40
2018-12-01T23:33:01.117Z,4.62
2018-12-01T23:35:05.103Z,5.15
2018-12-01T23:37:09.326Z,6.42
2018-12-01T23:39:13.149Z,5.12
2018-12-01T23:41:16.950Z,5.12
2018-12-01T23:43:21.182Z,6.72
2018-12-01T23:45:25.768Z,6.05
2018-12-01T23:47:29.549Z,4.40
2018-12-01T23:49:33.362Z,4.65
2018-12-01T23:51:37.155Z,4.90
2018-12-01T23:53:40.993Z,4.85
2018-12-01T23:55:44.827Z,4.00
2018-12-01T23:57:48.717Z,5.65
2018-12-01T23:59:52.538Z,6.25
